creativeshory.com alexa rank chart, creativeshory.com alexa rank daily changes

creativeshory.com alexa rank chart, creativeshory.com alexa rank daily changes

creativeshory.com
Actual rank:
624 056

RANK HISTORY

Date Rank Diff
2017/06/24 624 056 +11 924
2017/06/23 612 132 +4 827
2017/06/22 607 305 +23 879
2017/06/21 583 426 +9 896
2017/06/20 573 530 +7 317
2017/06/19 566 213 +18 161
2017/06/18 548 052 -1 665
2017/06/17 549 717 -27 996
2017/06/16 577 713 +14 387
2017/06/15 563 326 +19 459
2017/06/14 543 867 +18 245
2017/06/13 525 622 +11 181
2017/06/12 514 441 +29 586
2017/06/11 484 855 +4 506
2017/06/10 480 349 +7 107
2017/06/09 473 242 -15 820
2017/06/08 489 062 +6 044
2017/06/07 483 018 +7 934
2017/06/06 475 084 +2 646
2017/06/05 472 438 +22 322
2017/06/04 450 116 +3 444
2017/06/03 446 672 +12 549
2017/06/02 434 123 +6 794
2017/06/01 427 329 +7 800
2017/05/31 419 529 -291
2017/05/30 419 820 +5 726
2017/05/29 414 094 +13 697
2017/05/28 400 397 +6 118
2017/05/27 394 279 -13 466
2017/05/26 407 745 -3 077
2017/05/25 410 822 -5 198
2017/05/24 416 020 +4 471
2017/05/23 411 549 +9 576
2017/05/22 401 973 -8 357
2017/05/21 410 330 +28 705
2017/05/20 381 625 +6 015
2017/05/19 375 610 -99
2017/05/18 375 709 +5 502
2017/05/17 370 207 +930
2017/05/16 369 277 +3 707
2017/05/15 365 570 -2 818
2017/05/14 368 388 +12 686
2017/05/13 355 702 -1 624
2017/05/12 357 326 -1 646
2017/05/11 358 972 +356
2017/05/10 358 616 +5 654
2017/05/09 352 962 +2 725
2017/05/08 350 237 +18
2017/05/07 350 219 -2 479
2017/05/06 352 698 +2 141
2017/05/05 350 557 -8 695
2017/05/04 359 252 +4 131
2017/05/03 355 121 -293
2017/05/02 355 414 -6 083
2017/05/01 361 497 -3 058
2017/04/30 364 555 -3 844
2017/04/29 368 399 +158
2017/04/28 368 241 +5 473
2017/04/27 362 768 +5 449
2017/04/26 357 319 +5 836
2017/04/25 351 483

WIDGET FOR YOUR SITE

DOMAINS WITH THE NEAREST RANK

Domain Rank
opmpros.com 624 051
getplay.top 624 052
artoflivingretreatcenter.org 624 053
tuoitredonganh.vn 624 054
farmanove.it 624 055
creativeshory.com 624 056
peuplesobservateursblog.wordpress.com 624 057
deskpic.ru 624 058
gearearth.com 624 059
myetie.tumblr.com 624 060
sahinnetwork.com 624 061

DOMAINS WITH THE NEAREST RANK BY TLD .com

Domain Rank
igavelauctions.com 624 041
scootmotoshop.com 624 045
isokinetic.com 624 048
rethinkcanada.com 624 049
opmpros.com 624 051
creativeshory.com 624 056
gearearth.com 624 059
sahinnetwork.com 624 061
medicaltechnologyschools.com 624 062
colarcomnome.com 624 063
povlife.com 624 066